createdAt,value
2019-01-14T00:02:07.194Z,1.96
2019-01-14T00:12:07.223Z,1.94
2019-01-14T00:22:07.181Z,1.88
2019-01-14T00:32:07.187Z,2.27
2019-01-14T00:42:07.285Z,1.94
2019-01-14T00:52:07.251Z,1.86
2019-01-14T01:02:07.111Z,1.91
2019-01-14T01:12:07.185Z,1.96
2019-01-14T01:22:07.157Z,1.96
2019-01-14T01:32:07.124Z,2.10
2019-01-14T01:42:07.079Z,1.96
2019-01-14T01:52:07.147Z,1.72
2019-01-14T02:02:07.154Z,1.66
2019-01-14T02:12:07.343Z,2.05
2019-01-14T02:22:07.112Z,2.37
2019-01-14T02:32:07.157Z,2.07
2019-01-14T02:42:07.062Z,2.49
2019-01-14T02:52:07.170Z,2.66
2019-01-14T03:02:07.141Z,2.39
2019-01-14T03:12:07.140Z,2.91
2019-01-14T03:22:07.163Z,2.44
2019-01-14T03:32:07.087Z,2.17
2019-01-14T03:42:07.326Z,2.42
2019-01-14T03:52:07.151Z,2.03
2019-01-14T04:02:07.091Z,1.98
2019-01-14T04:12:07.057Z,2.37
2019-01-14T04:22:07.125Z,2.20
2019-01-14T04:32:07.065Z,2.18
2019-01-14T04:42:07.143Z,2.01
2019-01-14T04:52:07.194Z,2.23
2019-01-14T05:02:07.072Z,2.36
2019-01-14T05:12:07.163Z,2.53
2019-01-14T05:22:07.149Z,2.76
2019-01-14T05:32:07.033Z,2.58
2019-01-14T05:42:07.147Z,2.76
2019-01-14T05:52:07.131Z,3.04
2019-01-14T06:02:07.083Z,2.54
2019-01-14T06:12:07.061Z,2.63
2019-01-14T06:22:07.471Z,2.60
2019-01-14T06:32:07.056Z,1.69
2019-01-14T06:42:07.635Z,1.31
2019-01-14T06:52:07.174Z,0.81
2019-01-14T07:02:07.039Z,0.93
2019-01-14T07:12:09.878Z,1.20
2019-01-14T07:22:07.637Z,0.95
2019-01-14T07:32:15.059Z,0.37
2019-01-14T07:42:07.300Z,1.63
2019-01-14T07:52:08.813Z,1.09
2019-01-14T08:02:07.123Z,1.15
2019-01-14T08:12:07.335Z,1.91
2019-01-14T08:22:07.043Z,2.16
2019-01-14T08:32:06.954Z,2.64
2019-01-14T08:42:07.374Z,2.02
2019-01-14T08:52:07.258Z,1.48
2019-01-14T09:02:07.232Z,1.55
2019-01-14T09:12:07.157Z,1.51
2019-01-14T09:22:07.139Z,1.73
2019-01-14T09:32:07.171Z,1.35
2019-01-14T09:42:07.495Z,1.33
2019-01-14T09:52:07.097Z,1.74
2019-01-14T10:02:07.636Z,1.39
2019-01-14T10:12:07.060Z,0.97
2019-01-14T10:22:07.076Z,0.54
2019-01-14T10:32:07.044Z,0.53
2019-01-14T10:42:07.138Z,0.30
2019-01-14T10:52:07.065Z,0.40
2019-01-14T11:02:07.026Z,0.49
2019-01-14T11:12:07.440Z,0.66
2019-01-14T11:22:06.979Z,0.75
2019-01-14T11:32:07.035Z,0.91
2019-01-14T11:42:07.258Z,1.45
2019-01-14T11:52:07.189Z,1.28
2019-01-14T12:02:07.040Z,1.50
2019-01-14T12:12:07.097Z,1.34
2019-01-14T12:22:07.059Z,1.09
2019-01-14T12:32:07.082Z,0.95
2019-01-14T12:42:07.844Z,0.66
2019-01-14T12:52:07.104Z,0.43
2019-01-14T13:02:07.001Z,0.53
2019-01-14T13:12:07.417Z,1.27
2019-01-14T13:22:07.090Z,1.33
2019-01-14T13:32:07.010Z,1.28
2019-01-14T13:42:07.390Z,1.28
2019-01-14T13:52:07.087Z,1.61
2019-01-14T14:02:07.106Z,1.05
2019-01-14T14:12:07.460Z,1.26
2019-01-14T14:22:11.700Z,1.57
2019-01-14T14:32:07.080Z,1.61
2019-01-14T14:42:07.588Z,1.15
2019-01-14T14:52:07.144Z,1.02
2019-01-14T15:02:07.095Z,0.98
2019-01-14T15:12:07.353Z,1.13
2019-01-14T15:22:07.066Z,0.68
2019-01-14T15:32:06.999Z,0.89
2019-01-14T15:42:07.476Z,0.94
2019-01-14T15:52:07.025Z,1.29
2019-01-14T16:02:06.986Z,1.09
2019-01-14T16:12:07.346Z,1.22
2019-01-14T16:22:07.158Z,0.96
2019-01-14T16:32:09.021Z,0.96
2019-01-14T16:42:07.060Z,1.26
2019-01-14T16:52:07.085Z,0.77
2019-01-14T17:02:07.068Z,0.86
2019-01-14T17:12:07.437Z,0.82
2019-01-14T17:22:06.915Z,1.12
2019-01-14T17:32:07.038Z,1.27
2019-01-14T17:42:07.034Z,1.05
2019-01-14T17:52:07.730Z,0.86
2019-01-14T18:02:07.092Z,0.73
2019-01-14T18:12:07.001Z,1.21
2019-01-14T18:22:07.384Z,0.52
2019-01-14T18:32:06.984Z,1.14
2019-01-14T18:42:08.119Z,1.45
2019-01-14T18:52:06.840Z,1.71
2019-01-14T19:02:08.089Z,2.03
2019-01-14T19:12:07.035Z,1.69
2019-01-14T19:22:06.955Z,1.73
2019-01-14T19:32:06.961Z,1.43
2019-01-14T19:42:06.925Z,1.38
2019-01-14T19:52:07.024Z,1.20
2019-01-14T20:02:07.130Z,0.93
2019-01-14T20:12:06.949Z,0.69
2019-01-14T20:22:06.971Z,0.96
2019-01-14T20:32:06.941Z,0.84
2019-01-14T20:42:07.419Z,1.36
2019-01-14T20:52:06.968Z,1.36
2019-01-14T21:02:06.998Z,1.25
2019-01-14T21:12:07.017Z,1.53
2019-01-14T21:22:06.919Z,1.47
2019-01-14T21:32:07.100Z,0.72
2019-01-14T21:42:07.133Z,0.68
2019-01-14T21:52:06.905Z,0.82
2019-01-14T22:02:06.932Z,0.82
2019-01-14T22:12:06.878Z,0.61
2019-01-14T22:22:06.903Z,0.68
2019-01-14T22:32:07.933Z,0.83
2019-01-14T22:42:07.454Z,0.68
2019-01-14T22:52:06.941Z,1.15
2019-01-14T23:02:06.911Z,1.26
2019-01-14T23:12:06.910Z,1.46
2019-01-14T23:22:08.001Z,1.64
2019-01-14T23:32:06.928Z,2.37
2019-01-14T23:42:06.910Z,2.43
2019-01-14T23:52:06.957Z,1.84
